Time;durP1;ratioP1;P1;durP2;ratioP2;P2;SDS_P1;SDS_P2;PMS_P1;PMS_P2;Temp;Humidity;BMP_temperature;BMP_pressure;BME280_temperature;BME280_humidity;BME280_pressure;Samples;Min_cycle;Max_cycle;Signal;HPM_P1;HPM_P2
2021/06/13 00:01:23;;;;;;;3.00;2.45;;;25.40;62.80;;;;;;5010332;28;20057;-52
2021/06/13 00:03:49;;;;;;;3.38;2.53;;;25.40;63.10;;;;;;5009731;28;20038;-58
2021/06/13 00:06:15;;;;;;;3.25;2.40;;;25.40;63.40;;;;;;5011620;28;20061;-56
2021/06/13 00:08:41;;;;;;;2.78;2.38;;;25.40;63.40;;;;;;5006761;28;20049;-61
2021/06/13 00:11:07;;;;;;;2.90;2.40;;;25.30;63.50;;;;;;5003963;28;20364;-59
2021/06/13 00:13:33;;;;;;;2.75;2.55;;;25.30;63.50;;;;;;5005523;28;20087;-60
2021/06/13 00:15:58;;;;;;;2.90;2.60;;;25.30;63.50;;;;;;5004655;28;20356;-56
2021/06/13 00:18:24;;;;;;;3.17;2.70;;;25.30;63.60;;;;;;5004279;28;20079;-50
2021/06/13 00:20:52;;;;;;;2.55;2.33;;;25.30;63.50;;;;;;5005622;28;20030;-60
2021/06/13 00:23:17;;;;;;;3.35;2.65;;;25.30;63.60;;;;;;5000840;28;20026;-58
2021/06/13 00:25:44;;;;;;;3.05;2.38;;;25.30;63.60;;;;;;5003671;28;20014;-58
2021/06/13 00:28:10;;;;;;;2.47;2.28;;;25.30;63.60;;;;;;5002445;28;20080;-59
2021/06/13 00:30:36;;;;;;;2.83;2.45;;;25.30;63.60;;;;;;5007001;28;20471;-59
2021/06/13 00:33:02;;;;;;;2.63;2.35;;;25.30;63.60;;;;;;5005307;28;20034;-58
2021/06/13 00:35:28;;;;;;;2.75;2.35;;;25.20;63.60;;;;;;5003770;28;20026;-59
2021/06/13 00:37:53;;;;;;;3.28;2.70;;;25.20;63.50;;;;;;5005974;28;20033;-59
2021/06/13 00:40:21;;;;;;;3.03;2.58;;;25.20;63.60;;;;;;5005420;28;20030;-56
2021/06/13 00:42:47;;;;;;;5.20;2.50;;;25.20;63.60;;;;;;5005131;28;20036;-61
2021/06/13 00:45:14;;;;;;;2.75;2.42;;;25.20;63.60;;;;;;5006365;28;20403;-58
2021/06/13 00:47:40;;;;;;;2.95;2.47;;;25.20;63.60;;;;;;5006270;28;20034;-59
2021/06/13 00:50:09;;;;;;;3.15;2.08;;;25.20;63.60;;;;;;5002882;28;20049;-53
2021/06/13 00:52:35;;;;;;;2.70;2.40;;;25.20;63.60;;;;;;5003873;28;20038;-60
2021/06/13 00:55:01;;;;;;;2.88;2.45;;;25.20;63.50;;;;;;5002337;28;20031;-58
2021/06/13 00:57:27;;;;;;;4.07;2.50;;;25.10;63.40;;;;;;5003958;28;20484;-55
2021/06/13 00:59:53;;;;;;;3.40;2.70;;;25.10;63.40;;;;;;5004462;28;20070;-59
2021/06/13 01:02:18;;;;;;;3.08;2.78;;;25.10;63.40;;;;;;5005946;28;20023;-61
2021/06/13 01:04:44;;;;;;;6.35;2.75;;;25.10;63.40;;;;;;5011321;28;20750;-61
2021/06/13 01:07:20;;;;;;;2.85;2.58;;;25.10;63.30;;;;;;5007518;28;20387;-60
2021/06/13 01:09:52;;;;;;;3.75;2.65;;;25.10;63.20;;;;;;5009044;28;20034;-59
2021/06/13 01:12:50;;;;;;;2.97;2.50;;;25.20;63.10;;;;;;5004516;28;20423;-60
2021/06/13 01:15:21;;;;;;;5.43;2.45;;;25.20;63.30;;;;;;4997836;28;20068;-59
2021/06/13 01:17:52;;;;;;;3.53;2.50;;;25.10;63.30;;;;;;5017734;28;20467;-59
2021/06/13 01:20:25;;;;;;;3.58;2.40;;;25.10;63.30;;;;;;5018343;28;20034;-59
2021/06/13 01:23:15;;;;;;;5.18;2.85;;;25.10;63.40;;;;;;5018461;28;20053;-60
2021/06/13 01:25:55;;;;;;;3.88;2.78;;;25.10;63.40;;;;;;5016450;28;20594;-58
2021/06/13 01:28:46;;;;;;;3.22;2.92;;;25.10;63.50;;;;;;5049747;28;20414;-50
2021/06/13 01:31:12;;;;;;;4.40;3.10;;;25.10;63.50;;;;;;5018242;28;20113;-60
2021/06/13 01:33:39;;;;;;;3.47;2.55;;;25.10;63.30;;;;;;5016784;28;20109;-59
2021/06/13 01:36:07;;;;;;;4.75;2.70;;;25.10;63.40;;;;;;5018342;28;20117;-60
2021/06/13 01:38:35;;;;;;;3.45;2.63;;;25.10;63.50;;;;;;5017095;28;20034;-56
2021/06/13 01:41:03;;;;;;;5.65;2.85;;;25.10;63.40;;;;;;5017196;28;20045;-60
2021/06/13 01:43:30;;;;;;;3.92;2.33;;;25.00;63.30;;;;;;5016444;28;20463;-60
2021/06/13 01:45:57;;;;;;;4.10;2.90;;;25.00;63.30;;;;;;5017423;28;20439;-60
2021/06/13 01:48:23;;;;;;;3.40;2.70;;;25.00;63.20;;;;;;5017662;28;20032;-51
2021/06/13 01:50:50;;;;;;;3.55;2.88;;;25.00;63.30;;;;;;5017460;28;20054;-59
2021/06/13 01:53:16;;;;;;;3.65;2.40;;;25.00;63.30;;;;;;5017205;28;20456;-60
2021/06/13 01:55:49;;;;;;;4.53;2.80;;;25.00;63.20;;;;;;5016577;28;20029;-55
2021/06/13 01:58:18;;;;;;;4.90;2.97;;;25.00;63.20;;;;;;5017187;28;20026;-60
2021/06/13 02:00:45;;;;;;;3.42;2.50;;;25.00;63.20;;;;;;5016107;28;20196;-60
2021/06/13 02:03:13;;;;;;;3.92;2.83;;;25.00;63.10;;;;;;5017317;28;20398;-61
2021/06/13 02:05:40;;;;;;;4.00;2.88;;;25.00;63.00;;;;;;5016488;28;20036;-61
2021/06/13 02:08:07;;;;;;;3.60;2.55;;;25.00;63.00;;;;;;5017777;28;20030;-60
2021/06/13 02:10:33;;;;;;;4.43;2.75;;;25.00;63.10;;;;;;5016455;28;20479;-59
2021/06/13 02:13:00;;;;;;;3.83;2.97;;;25.00;62.90;;;;;;5017660;28;20494;-60
2021/06/13 02:15:28;;;;;;;5.45;2.50;;;25.00;62.80;;;;;;5016626;28;20030;-54
2021/06/13 02:17:55;;;;;;;5.18;2.60;;;25.00;63.00;;;;;;5017757;28;20054;-61
2021/06/13 02:20:25;;;;;;;3.42;2.63;;;25.00;63.00;;;;;;5017487;28;20069;-61
2021/06/13 02:22:52;;;;;;;2.92;2.63;;;25.00;62.90;;;;;;5013716;28;20027;-61
2021/06/13 02:25:22;;;;;;;3.50;2.70;;;25.00;62.70;;;;;;5004444;28;20037;-61
2021/06/13 02:27:56;;;;;;;4.07;2.83;;;25.00;62.70;;;;;;5029575;28;20025;-61
2021/06/13 02:30:23;;;;;;;4.70;2.45;;;25.00;62.70;;;;;;5015774;28;20041;-57
2021/06/13 02:32:50;;;;;;;3.08;2.75;;;25.00;62.70;;;;;;5013523;28;20096;-61
2021/06/13 02:35:17;;;;;;;3.03;2.63;;;25.00;62.70;;;;;;5014261;28;20053;-61
2021/06/13 02:37:44;;;;;;;7.45;2.50;;;25.00;62.70;;;;;;5013602;28;20037;-60
2021/06/13 02:40:12;;;;;;;2.90;2.60;;;25.00;62.70;;;;;;5014189;28;20131;-58
2021/06/13 02:42:38;;;;;;;4.20;2.58;;;25.00;62.70;;;;;;5013313;28;20026;-60
2021/06/13 02:45:11;;;;;;;3.90;2.53;;;25.00;62.60;;;;;;5014397;28;20460;-61
2021/06/13 02:47:38;;;;;;;4.03;2.47;;;24.90;62.50;;;;;;5013254;28;20026;-60
2021/06/13 02:50:08;;;;;;;4.72;2.78;;;25.00;62.70;;;;;;5013953;28;20046;-60
2021/06/13 02:52:47;;;;;;;4.43;2.53;;;25.00;62.50;;;;;;5012919;28;20054;-60
2021/06/13 02:55:20;;;;;;;4.72;2.78;;;25.00;62.30;;;;;;5013838;28;20034;-61
2021/06/13 02:57:55;;;;;;;3.10;2.40;;;25.00;62.40;;;;;;5013049;28;20052;-59
2021/06/13 03:00:24;;;;;;;3.03;2.55;;;25.00;62.30;;;;;;5013246;28;20677;-59
2021/06/13 03:02:53;;;;;;;3.10;2.35;;;25.00;62.30;;;;;;5013006;28;20029;-60
2021/06/13 03:05:24;;;;;;;3.85;2.83;;;24.90;62.90;;;;;;5013577;28;20018;-60
2021/06/13 03:07:50;;;;;;;4.47;2.63;;;25.00;62.10;;;;;;5006477;28;20040;-60
2021/06/13 03:10:17;;;;;;;4.20;2.60;;;25.00;62.00;;;;;;5028690;28;20041;-60
2021/06/13 03:12:43;;;;;;;3.60;2.80;;;25.00;62.00;;;;;;5012930;28;20038;-61
2021/06/13 03:15:10;;;;;;;4.25;2.60;;;24.90;62.00;;;;;;5013253;28;20054;-60
2021/06/13 03:17:37;;;;;;;3.90;2.80;;;24.90;62.00;;;;;;5012539;28;20041;-59
2021/06/13 03:20:05;;;;;;;3.80;2.50;;;24.90;62.10;;;;;;5012431;28;20091;-57
2021/06/13 03:22:33;;;;;;;8.57;2.63;;;24.90;62.00;;;;;;5012814;28;20030;-61
2021/06/13 03:25:00;;;;;;;4.95;2.47;;;24.90;62.00;;;;;;5013384;28;20033;-59
2021/06/13 03:27:26;;;;;;;5.03;2.55;;;24.90;62.00;;;;;;5006408;28;20510;-49
2021/06/13 03:29:52;;;;;;;3.15;2.63;;;24.90;62.00;;;;;;5012723;28;20041;-60
2021/06/13 03:32:20;;;;;;;2.55;2.35;;;24.90;61.90;;;;;;5012938;28;20083;-60
2021/06/13 03:34:46;;;;;;;3.03;2.35;;;24.90;61.80;;;;;;5012627;28;20018;-60
2021/06/13 03:37:13;;;;;;;2.92;2.50;;;24.90;61.80;;;;;;5011484;28;20034;-60
2021/06/13 03:39:41;;;;;;;2.67;2.25;;;24.90;61.80;;;;;;5011969;28;20045;-60
2021/06/13 03:42:08;;;;;;;4.68;2.60;;;24.90;61.80;;;;;;5012468;28;20442;-60
2021/06/13 03:44:34;;;;;;;5.43;2.90;;;24.90;61.70;;;;;;5012449;28;20026;-59
2021/06/13 03:47:00;;;;;;;3.72;2.60;;;24.90;61.80;;;;;;5012822;28;20033;-60
2021/06/13 03:49:27;;;;;;;5.25;2.35;;;24.90;61.80;;;;;;5012900;28;20384;-50
2021/06/13 03:51:53;;;;;;;3.75;2.92;;;24.90;61.70;;;;;;5011950;28;20050;-60
2021/06/13 03:54:19;;;;;;;3.08;2.60;;;24.90;61.50;;;;;;5012531;28;20033;-60
2021/06/13 03:56:51;;;;;;;2.75;2.50;;;24.90;61.90;;;;;;5012026;28;20040;-60
2021/06/13 03:59:22;;;;;;;2.40;2.20;;;24.90;61.40;;;;;;5012479;28;20538;-59
2021/06/13 04:01:48;;;;;;;4.00;2.13;;;24.90;61.50;;;;;;5011582;28;20702;-60
2021/06/13 04:04:17;;;;;;;2.90;2.58;;;24.90;61.50;;;;;;5012527;28;20681;-54
2021/06/13 04:06:46;;;;;;;3.10;2.50;;;24.90;61.40;;;;;;5003605;28;20022;-60
2021/06/13 04:09:15;;;;;;;3.05;2.38;;;24.90;61.40;;;;;;5012850;28;20057;-60
2021/06/13 04:11:42;;;;;;;2.65;2.45;;;24.90;61.40;;;;;;5011823;28;20041;-60
2021/06/13 04:14:11;;;;;;;3.97;2.25;;;24.90;61.40;;;;;;5011993;28;20924;-59
2021/06/13 04:16:42;;;;;;;2.60;2.35;;;24.90;61.50;;;;;;5011510;28;20372;-60
2021/06/13 04:19:09;;;;;;;4.47;3.33;;;24.90;61.20;;;;;;5012663;28;20030;-60
2021/06/13 04:21:36;;;;;;;2.65;2.40;;;24.90;61.00;;;;;;5011267;28;20026;-60
2021/06/13 04:24:02;;;;;;;2.65;2.40;;;24.90;61.10;;;;;;5012607;28;20076;-61
2021/06/13 04:26:29;;;;;;;3.28;2.22;;;24.90;61.10;;;;;;5011908;28;20482;-49
2021/06/13 04:28:55;;;;;;;3.15;2.38;;;24.90;61.20;;;;;;5012038;28;20033;-60
2021/06/13 04:31:21;;;;;;;3.70;2.65;;;24.90;61.20;;;;;;5012468;28;20472;-61
2021/06/13 04:33:48;;;;;;;3.03;2.08;;;24.90;61.10;;;;;;5011521;28;20030;-61
2021/06/13 04:36:16;;;;;;;3.42;2.20;;;24.90;61.00;;;;;;5011872;28;20030;-60
2021/06/13 04:38:42;;;;;;;3.47;2.38;;;24.90;61.00;;;;;;5010765;28;20041;-56
2021/06/13 04:41:08;;;;;;;2.85;2.10;;;24.90;60.90;;;;;;5011844;28;20034;-60
2021/06/13 04:43:35;;;;;;;2.67;2.20;;;24.90;60.90;;;;;;5011063;28;20034;-60
2021/06/13 04:46:03;;;;;;;4.53;2.60;;;24.90;60.70;;;;;;5012208;28;20030;-61
2021/06/13 04:48:29;;;;;;;3.50;2.40;;;24.90;60.70;;;;;;5011171;28;20029;-50
2021/06/13 04:50:59;;;;;;;2.83;2.25;;;24.90;60.80;;;;;;5011613;28;20068;-59
2021/06/13 04:53:47;;;;;;;2.63;2.13;;;24.90;60.90;;;;;;5010091;28;20128;-61
2021/06/13 04:56:30;;;;;;;3.58;2.47;;;24.90;60.70;;;;;;5011828;28;20030;-60
2021/06/13 04:58:55;;;;;;;3.35;2.40;;;24.90;60.70;;;;;;5010400;28;20030;-61
2021/06/13 05:01:21;;;;;;;3.28;2.55;;;24.90;60.80;;;;;;5011782;28;20034;-57
2021/06/13 05:03:47;;;;;;;3.15;2.10;;;24.90;60.60;;;;;;5010764;28;20488;-60
2021/06/13 05:06:13;;;;;;;4.60;2.30;;;24.80;60.50;;;;;;5011363;28;20105;-61
2021/06/13 05:08:41;;;;;;;3.08;2.30;;;24.90;60.60;;;;;;5002168;28;20037;-60
2021/06/13 05:11:08;;;;;;;3.88;2.50;;;24.90;60.60;;;;;;5011147;28;20038;-60
2021/06/13 05:13:33;;;;;;;3.25;2.30;;;24.90;60.60;;;;;;5010779;28;20061;-59
2021/06/13 05:15:59;;;;;;;3.90;2.20;;;24.90;60.70;;;;;;5011219;28;20030;-61
2021/06/13 05:18:25;;;;;;;4.32;2.50;;;24.90;60.50;;;;;;5011630;28;20030;-60
2021/06/13 05:20:53;;;;;;;3.10;2.08;;;24.90;60.50;;;;;;5011044;28;20119;-60
2021/06/13 05:23:19;;;;;;;2.08;1.88;;;24.90;60.70;;;;;;5011274;28;20030;-59
2021/06/13 05:25:45;;;;;;;4.63;2.50;;;24.90;60.40;;;;;;5010877;28;20022;-60
2021/06/13 05:28:11;;;;;;;3.15;2.50;;;24.90;60.40;;;;;;5011478;28;20033;-59
2021/06/13 05:30:38;;;;;;;2.85;2.38;;;24.90;60.40;;;;;;5010276;28;20037;-60
2021/06/13 05:33:04;;;;;;;3.60;2.30;;;24.90;60.30;;;;;;5011356;28;20022;-60
2021/06/13 05:35:31;;;;;;;2.67;2.47;;;24.90;61.10;;;;;;5026386;28;20030;-52
2021/06/13 05:37:56;;;;;;;2.35;2.00;;;24.80;60.40;;;;;;5023615;28;20105;-59
2021/06/13 05:40:23;;;;;;;3.33;2.20;;;24.90;60.40;;;;;;5028924;28;20419;-59
2021/06/13 05:42:49;;;;;;;3.15;2.33;;;24.90;60.40;;;;;;5010024;28;20696;-59
2021/06/13 05:45:15;;;;;;;2.63;2.05;;;24.90;60.40;;;;;;5003766;28;20041;-60
2021/06/13 05:47:41;;;;;;;2.70;2.38;;;24.90;60.30;;;;;;5010731;28;20034;-60
2021/06/13 05:50:09;;;;;;;3.75;2.28;;;24.90;60.20;;;;;;5010848;28;20458;-60
2021/06/13 05:52:36;;;;;;;4.20;2.30;;;24.90;60.30;;;;;;5010356;28;20050;-60
2021/06/13 05:55:03;;;;;;;3.30;2.10;;;24.80;60.00;;;;;;5011034;28;20050;-60
2021/06/13 05:57:32;;;;;;;3.40;2.10;;;24.90;60.10;;;;;;5011079;28;20022;-60
2021/06/13 06:00:08;;;;;;;3.95;2.30;;;24.80;60.20;;;;;;5011059;28;20038;-60
2021/06/13 06:02:34;;;;;;;2.78;1.98;;;24.90;60.20;;;;;;5013969;28;20116;-55
2021/06/13 06:05:00;;;;;;;2.90;2.13;;;24.90;60.10;;;;;;5015209;28;20033;-60
2021/06/13 06:07:25;;;;;;;3.25;2.13;;;24.90;60.10;;;;;;5014668;28;20037;-60
2021/06/13 06:09:51;;;;;;;4.03;2.15;;;24.90;60.00;;;;;;5013471;28;20038;-60
2021/06/13 06:12:17;;;;;;;3.85;2.17;;;24.90;60.00;;;;;;5014759;28;20040;-60
2021/06/13 06:14:44;;;;;;;3.45;2.15;;;24.90;60.00;;;;;;5013505;28;20026;-60
2021/06/13 06:17:10;;;;;;;3.80;2.08;;;24.90;60.00;;;;;;5014628;28;20062;-60
2021/06/13 06:19:36;;;;;;;3.88;1.90;;;24.90;60.00;;;;;;5013656;28;20077;-59
2021/06/13 06:22:03;;;;;;;3.00;1.70;;;24.90;59.90;;;;;;5014358;28;20484;-59
2021/06/13 06:24:28;;;;;;;3.00;2.00;;;24.90;59.90;;;;;;5014440;28;20026;-61
2021/06/13 06:26:54;;;;;;;2.47;2.17;;;24.90;60.00;;;;;;5013683;28;20033;-60
2021/06/13 06:29:20;;;;;;;2.40;1.77;;;24.80;59.90;;;;;;5013912;28;20045;-60
2021/06/13 06:31:46;;;;;;;2.63;1.95;;;24.80;59.80;;;;;;5013443;28;20116;-59
2021/06/13 06:34:12;;;;;;;2.90;2.00;;;24.90;59.80;;;;;;5014082;28;20041;-60
2021/06/13 06:36:38;;;;;;;3.45;2.22;;;24.80;59.80;;;;;;5013389;28;20038;-60
2021/06/13 06:39:04;;;;;;;2.72;1.88;;;24.90;59.70;;;;;;5014483;28;20492;-60
2021/06/13 06:41:30;;;;;;;4.80;2.22;;;24.90;59.70;;;;;;5013625;28;20033;-60
2021/06/13 06:43:55;;;;;;;3.17;1.65;;;24.80;59.80;;;;;;5012143;28;20476;-60
2021/06/13 06:46:21;;;;;;;3.30;2.15;;;24.90;59.70;;;;;;5013917;28;20080;-60
2021/06/13 06:48:46;;;;;;;2.67;1.75;;;24.90;59.70;;;;;;5013362;28;20030;-60
2021/06/13 06:51:12;;;;;;;4.22;2.20;;;24.90;59.60;;;;;;5013602;28;20038;-61
2021/06/13 06:53:40;;;;;;;6.53;3.63;;;24.80;50.50;;;;;;5028428;28;20034;-61
2021/06/13 06:56:06;;;;;;;5.68;2.55;;;24.20;49.60;;;;;;5013673;28;20037;-61
2021/06/13 06:58:32;;;;;;;5.35;2.22;;;23.70;48.50;;;;;;5011893;28;20682;-50
2021/06/13 07:00:58;;;;;;;7.95;2.20;;;23.40;48.80;;;;;;5012741;28;20030;-57
2021/06/13 07:03:23;;;;;;;5.13;2.28;;;23.20;49.50;;;;;;5013502;28;20364;-60
2021/06/13 07:05:49;;;;;;;4.80;2.28;;;23.10;48.90;;;;;;5012980;28;20113;-61
2021/06/13 07:08:14;;;;;;;4.93;1.95;;;23.10;48.90;;;;;;5010781;28;20034;-61
2021/06/13 07:10:40;;;;;;;5.72;2.20;;;23.00;48.70;;;;;;5012901;28;20434;-60
2021/06/13 07:13:06;;;;;;;6.53;2.65;;;23.10;49.00;;;;;;5013066;28;20038;-61
2021/06/13 07:15:32;;;;;;;8.63;2.60;;;23.00;49.20;;;;;;5013626;28;20034;-61
2021/06/13 07:17:57;;;;;;;6.20;2.75;;;23.00;49.10;;;;;;5013198;28;20034;-61
2021/06/13 07:20:23;;;;;;;5.38;2.08;;;23.10;49.50;;;;;;5010185;28;20069;-59
2021/06/13 07:22:48;;;;;;;6.85;2.70;;;23.10;49.70;;;;;;5002351;28;20034;-51
2021/06/13 07:25:14;;;;;;;5.53;2.45;;;23.10;49.80;;;;;;4997872;28;20025;-58
2021/06/13 07:27:41;;;;;;;3.63;2.38;;;23.10;50.00;;;;;;5008355;28;20030;-60
2021/06/13 07:30:10;;;;;;;3.28;2.10;;;23.00;49.50;;;;;;5007210;28;20105;-61
2021/06/13 07:32:36;;;;;;;4.88;2.50;;;23.10;49.50;;;;;;5007592;28;20037;-54
2021/06/13 07:35:06;;;;;;;8.45;3.03;;;23.00;49.50;;;;;;5001464;28;20033;-61
2021/06/13 07:37:32;;;;;;;3.30;2.45;;;23.00;49.90;;;;;;5006020;28;20916;-60
2021/06/13 07:39:57;;;;;;;4.40;2.38;;;23.00;49.70;;;;;;5004190;28;20061;-62
2021/06/13 07:42:23;;;;;;;4.93;2.42;;;22.90;49.70;;;;;;5011895;28;20025;-58
2021/06/13 07:44:51;;;;;;;4.30;2.20;;;23.00;49.50;;;;;;5000236;28;20041;-60
2021/06/13 07:47:18;;;;;;;7.13;2.60;;;23.00;49.70;;;;;;5008554;28;20022;-58
2021/06/13 07:49:43;;;;;;;6.25;2.60;;;22.90;49.80;;;;;;5001721;28;20840;-56
2021/06/13 07:52:09;;;;;;;7.35;2.40;;;23.00;49.70;;;;;;5006294;28;20128;-60
2021/06/13 07:54:35;;;;;;;7.95;2.40;;;23.00;49.50;;;;;;5005280;28;20033;-48
2021/06/13 07:57:00;;;;;;;10.13;3.20;;;23.00;49.40;;;;;;5005794;28;20030;-59
2021/06/13 07:59:26;;;;;;;6.05;2.60;;;23.00;49.60;;;;;;5006202;28;20026;-60
2021/06/13 08:01:52;;;;;;;4.40;2.00;;;22.90;49.40;;;;;;5006837;28;20513;-61
2021/06/13 08:04:17;;;;;;;4.32;2.40;;;23.00;49.50;;;;;;5000994;28;20376;-60
2021/06/13 08:06:43;;;;;;;6.28;2.20;;;23.00;49.10;;;;;;5001698;28;20034;-60
2021/06/13 08:09:09;;;;;;;5.32;2.10;;;22.90;49.10;;;;;;5006127;28;20026;-61
2021/06/13 08:11:36;;;;;;;5.35;2.42;;;23.00;49.20;;;;;;5010102;28;20045;-50
2021/06/13 08:14:02;;;;;;;8.75;2.45;;;23.00;49.00;;;;;;5001314;28;20112;-59
2021/06/13 08:16:28;;;;;;;3.55;1.95;;;23.00;49.10;;;;;;5004207;28;20061;-61
2021/06/13 08:18:54;;;;;;;8.48;2.65;;;23.00;49.50;;;;;;5005604;28;20255;-59
2021/06/13 08:21:19;;;;;;;7.57;2.58;;;23.00;49.20;;;;;;5000147;28;20034;-58
2021/06/13 08:23:46;;;;;;;4.90;2.65;;;23.00;48.80;;;;;;4995907;28;20388;-59
2021/06/13 08:26:12;;;;;;;7.25;2.28;;;23.00;48.80;;;;;;5002277;28;20115;-61
2021/06/13 08:28:38;;;;;;;6.38;2.40;;;23.00;48.20;;;;;;5006125;28;20025;-59
2021/06/13 08:31:04;;;;;;;4.72;1.90;;;23.20;48.30;;;;;;5005229;28;20055;-59
2021/06/13 08:33:29;;;;;;;4.10;2.13;;;23.30;48.30;;;;;;5006598;28;20026;-59
2021/06/13 08:35:55;;;;;;;4.80;2.03;;;23.40;47.80;;;;;;5004506;28;20109;-59
2021/06/13 08:38:23;;;;;;;7.03;2.80;;;23.30;47.90;;;;;;5002704;28;20494;-60
2021/06/13 08:40:49;;;;;;;3.40;2.00;;;23.20;47.20;;;;;;5001304;28;20084;-59
2021/06/13 08:43:15;;;;;;;5.80;2.35;;;23.30;47.60;;;;;;5010725;28;20033;-58
2021/06/13 08:45:41;;;;;;;7.95;2.88;;;23.40;47.50;;;;;;5010522;28;20038;-60
2021/06/13 08:48:08;;;;;;;6.45;2.30;;;23.30;47.60;;;;;;5017427;28;20044;-58
2021/06/13 08:50:35;;;;;;;4.93;2.17;;;23.30;47.60;;;;;;5031140;28;20133;-52
2021/06/13 08:53:02;;;;;;;4.60;2.67;;;23.30;47.10;;;;;;5010425;28;20364;-59
2021/06/13 08:55:29;;;;;;;6.70;2.22;;;23.30;47.30;;;;;;5004182;28;20028;-58
2021/06/13 08:57:56;;;;;;;5.20;2.22;;;23.30;47.30;;;;;;5005457;28;20087;-59
2021/06/13 09:00:25;;;;;;;6.03;2.67;;;23.40;46.90;;;;;;5005009;28;20081;-59
2021/06/13 09:02:51;;;;;;;7.03;2.28;;;23.30;47.10;;;;;;5001620;28;20040;-59
2021/06/13 09:05:19;;;;;;;4.43;2.55;;;23.40;47.40;;;;;;5000709;28;20029;-59
2021/06/13 09:07:55;;;;;;;6.00;2.30;;;23.30;48.00;;;;;;5005328;28;20426;-58
2021/06/13 09:10:25;;;;;;;7.82;2.28;;;23.40;47.50;;;;;;5006887;28;20045;-59
2021/06/13 09:13:08;;;;;;;4.75;2.70;;;23.30;47.30;;;;;;5000249;28;20037;-59
2021/06/13 09:15:46;;;;;;;4.88;2.17;;;23.30;47.20;;;;;;5006636;28;20030;-56
2021/06/13 09:18:43;;;;;;;3.95;2.38;;;23.50;47.20;;;;;;5004254;28;20097;-60
2021/06/13 09:21:27;;;;;;;3.75;2.30;;;23.50;47.20;;;;;;5007498;28;20089;-58
2021/06/13 09:23:54;;;;;;;6.18;2.30;;;23.40;46.60;;;;;;5005937;28;20041;-59
2021/06/13 09:26:23;;;;;;;3.72;2.00;;;23.40;46.90;;;;;;5003309;28;20022;-59
2021/06/13 09:28:51;;;;;;;5.97;2.50;;;23.40;46.90;;;;;;5005508;28;20479;-59
2021/06/13 09:31:26;;;;;;;3.95;1.98;;;23.40;46.70;;;;;;5000450;28;20471;-59
2021/06/13 09:33:54;;;;;;;8.07;2.38;;;23.40;47.00;;;;;;5006064;28;20058;-59
2021/06/13 09:36:25;;;;;;;5.07;2.70;;;23.40;46.70;;;;;;5005428;28;20033;-59
2021/06/13 09:39:04;;;;;;;7.88;2.22;;;23.40;46.80;;;;;;5004325;28;20041;-59
2021/06/13 09:41:30;;;;;;;6.32;2.15;;;23.40;46.80;;;;;;5004561;28;20033;-58
2021/06/13 09:44:06;;;;;;;4.40;1.90;;;23.40;46.50;;;;;;5004639;28;20165;-58
2021/06/13 09:46:34;;;;;;;3.92;1.88;;;23.50;46.20;;;;;;5005085;28;20026;-59
2021/06/13 09:49:09;;;;;;;6.38;2.15;;;23.50;46.10;;;;;;5012346;28;20057;-57
2021/06/13 09:51:44;;;;;;;5.65;2.03;;;23.50;46.30;;;;;;5009697;28;20334;-52
2021/06/13 09:54:20;;;;;;;4.22;2.15;;;23.50;46.60;;;;;;5005483;28;20137;-59
2021/06/13 09:56:47;;;;;;;5.13;2.13;;;23.50;46.60;;;;;;5007521;28;20033;-59
2021/06/13 09:59:22;;;;;;;3.33;2.08;;;23.60;46.90;;;;;;5008103;28;20364;-59
2021/06/13 10:01:52;;;;;;;7.38;2.50;;;23.60;46.50;;;;;;5006542;28;20037;-58
2021/06/13 10:04:18;;;;;;;4.93;2.20;;;23.70;45.80;;;;;;5008356;28;20102;-59
2021/06/13 10:06:48;;;;;;;6.82;1.83;;;23.70;45.90;;;;;;5011436;28;20050;-57
2021/06/13 10:09:15;;;;;;;3.80;1.92;;;23.70;45.00;;;;;;5007886;28;20394;-56
2021/06/13 10:11:42;;;;;;;4.88;1.95;;;23.70;45.40;;;;;;5014472;28;20124;-59
2021/06/13 10:14:13;;;;;;;8.02;2.10;;;23.80;45.50;;;;;;5014561;28;20029;-58
2021/06/13 10:16:40;;;;;;;4.53;1.90;;;23.80;45.30;;;;;;5014139;28;20042;-48
2021/06/13 10:19:14;;;;;;;3.05;1.85;;;23.80;44.40;;;;;;5014724;28;20268;-58
2021/06/13 10:21:45;;;;;;;3.95;1.98;;;23.70;44.20;;;;;;5013250;28;20083;-58
2021/06/13 10:24:16;;;;;;;3.75;1.60;;;23.70;44.20;;;;;;5015114;28;20080;-58
2021/06/13 10:26:45;;;;;;;6.63;2.25;;;23.70;44.10;;;;;;5013360;28;20132;-58
2021/06/13 10:29:12;;;;;;;3.85;1.65;;;23.80;44.90;;;;;;5015854;28;20038;-59
2021/06/13 10:31:38;;;;;;;2.15;1.50;;;23.90;44.80;;;;;;5013233;28;20026;-56
2021/06/13 10:34:04;;;;;;;3.63;1.77;;;23.90;44.80;;;;;;5014763;28;20029;-59
2021/06/13 10:36:37;;;;;;;6.30;2.30;;;23.90;44.60;;;;;;5017291;28;20205;-61
2021/06/13 10:39:05;;;;;;;5.95;2.05;;;23.90;44.10;;;;;;5014651;28;20054;-58
2021/06/13 10:41:31;;;;;;;2.03;1.40;;;23.80;43.30;;;;;;5012801;28;20545;-56
2021/06/13 10:44:03;;;;;;;5.13;1.92;;;23.70;43.40;;;;;;5013558;28;20026;-59
2021/06/13 10:46:31;;;;;;;5.93;2.22;;;23.60;43.60;;;;;;5013706;28;20108;-61
2021/06/13 10:48:59;;;;;;;4.07;1.70;;;23.70;43.90;;;;;;5014146;28;20037;-59
2021/06/13 10:51:43;;;;;;;4.25;1.48;;;23.80;44.60;;;;;;5017826;28;20382;-59
2021/06/13 10:54:28;;;;;;;3.55;1.95;;;24.10;45.00;;;;;;5006518;28;20080;-60
2021/06/13 10:57:13;;;;;;;2.83;1.58;;;24.30;45.60;;;;;;5012834;28;20092;-58
2021/06/13 10:59:41;;;;;;;2.53;1.50;;;24.40;46.30;;;;;;5013377;28;20029;-48
2021/06/13 11:02:09;;;;;;;4.53;1.73;;;24.50;46.00;;;;;;5013844;28;20034;-58
2021/06/13 11:04:47;;;;;;;2.80;1.48;;;24.50;46.50;;;;;;5014484;28;20030;-59
2021/06/13 11:07:28;;;;;;;5.00;2.72;;;24.50;46.70;;;;;;5012880;28;20026;-59
2021/06/13 11:10:06;;;;;;;3.72;1.65;;;24.50;46.60;;;;;;5012589;28;20479;-53
2021/06/13 11:12:56;;;;;;;3.53;1.40;;;24.50;46.80;;;;;;5013629;28;20042;-58
2021/06/13 11:15:22;;;;;;;3.95;2.17;;;24.60;46.90;;;;;;5013483;28;20050;-58
2021/06/13 11:18:02;;;;;;;2.83;1.40;;;24.60;46.80;;;;;;5012184;28;20053;-58
2021/06/13 11:20:33;;;;;;;2.78;1.50;;;24.60;46.80;;;;;;5013357;28;20036;-59
2021/06/13 11:23:00;;;;;;;3.60;1.20;;;24.60;47.00;;;;;;5012368;28;20026;-57
2021/06/13 11:25:29;;;;;;;2.92;1.25;;;24.60;47.20;;;;;;5013501;28;20033;-57
2021/06/13 11:28:16;;;;;;;3.25;1.95;;;24.60;47.10;;;;;;5012237;28;20075;-58
2021/06/13 11:31:14;;;;;;;3.25;1.52;;;24.70;47.20;;;;;;5013376;28;20511;-57
2021/06/13 11:33:47;;;;;;;3.20;1.55;;;24.70;47.40;;;;;;5011401;28;20069;-49
2021/06/13 11:36:16;;;;;;;2.40;1.40;;;24.70;47.30;;;;;;5012841;28;20029;-59
2021/06/13 11:39:02;;;;;;;3.13;1.60;;;24.70;47.20;;;;;;5012190;28;20036;-56
2021/06/13 11:41:36;;;;;;;3.08;1.55;;;24.70;47.50;;;;;;5000877;28;20042;-58
2021/06/13 11:44:08;;;;;;;2.25;1.50;;;24.70;47.30;;;;;;5015475;28;20026;-57
2021/06/13 11:46:43;;;;;;;3.30;1.30;;;24.70;47.50;;;;;;5013020;28;20426;-58
2021/06/13 11:49:14;;;;;;;2.60;1.33;;;24.70;47.30;;;;;;5016003;28;20053;-56
2021/06/13 11:51:54;;;;;;;3.70;1.45;;;24.80;47.40;;;;;;5006529;28;20053;-47
2021/06/13 11:54:39;;;;;;;3.70;1.30;;;24.80;48.00;;;;;;4995841;28;20098;-58
2021/06/13 11:57:28;;;;;;;2.15;1.20;;;24.80;47.30;;;;;;5012217;28;20041;-58
2021/06/13 11:59:54;;;;;;;2.65;1.50;;;24.80;47.20;;;;;;5006498;28;20065;-58
2021/06/13 12:02:26;;;;;;;2.35;1.30;;;24.80;47.40;;;;;;5011442;28;20042;-59
2021/06/13 12:04:51;;;;;;;3.45;1.45;;;24.80;47.20;;;;;;5012785;28;20038;-59
2021/06/13 12:07:18;;;;;;;1.73;1.20;;;24.80;47.50;;;;;;5012116;28;20088;-57
2021/06/13 12:09:45;;;;;;;2.40;1.60;;;24.80;47.30;;;;;;5008933;28;20084;-57
2021/06/13 12:12:13;;;;;;;3.22;1.40;;;24.80;47.20;;;;;;5012864;28;20443;-58
2021/06/13 12:14:41;;;;;;;3.33;1.42;;;24.80;47.40;;;;;;5005932;28;20057;-53
2021/06/13 12:17:25;;;;;;;3.03;1.45;;;24.80;47.40;;;;;;5010356;28;20022;-58
2021/06/13 12:19:55;;;;;;;1.65;1.38;;;24.80;47.40;;;;;;5011691;28;20736;-58
2021/06/13 12:27:48;;;;;;;2.03;1.10;;;24.80;47.70;;;;;;5011824;28;20032;-48
2021/06/13 12:30:19;;;;;;;;;;;24.90;47.60;;;;;;5011166;28;20519;-59
2021/06/13 12:33:12;;;;;;;2.10;1.38;;;24.80;47.30;;;;;;5011009;28;20283;-57
2021/06/13 12:35:43;;;;;;;1.95;1.20;;;24.90;47.20;;;;;;5012002;28;20469;-58
2021/06/13 12:38:12;;;;;;;2.30;1.05;;;24.90;47.00;;;;;;5012191;28;20050;-58
2021/06/13 12:40:43;;;;;;;1.83;1.30;;;24.80;47.40;;;;;;5011358;28;20033;-58
2021/06/13 12:43:10;;;;;;;2.83;1.38;;;24.80;47.40;;;;;;5011872;28;20022;-58
2021/06/13 12:45:37;;;;;;;2.60;1.38;;;24.80;47.60;;;;;;5011529;28;20125;-58
2021/06/13 12:48:06;;;;;;;1.85;1.42;;;24.80;47.40;;;;;;5011189;28;20021;-58
2021/06/13 12:50:42;;;;;;;2.63;1.35;;;24.90;47.70;;;;;;5011437;28;20038;-58
2021/06/13 12:53:11;;;;;;;2.88;1.60;;;24.90;47.90;;;;;;5026679;28;20042;-59
2021/06/13 12:55:39;;;;;;;2.63;1.42;;;24.90;46.70;;;;;;5011655;28;20029;-60
2021/06/13 12:58:08;;;;;;;2.75;1.58;;;24.80;46.50;;;;;;5011389;28;20133;-59
2021/06/13 13:00:34;;;;;;;2.50;1.40;;;24.80;45.40;;;;;;5011436;28;20120;-58
2021/06/13 13:03:13;;;;;;;2.88;1.48;;;24.80;45.90;;;;;;5010910;28;20034;-59